Time,TemperatureF,DewpointF,PressureIn,WindDirection,WindDirectionDegrees,WindSpeedMPH,WindSpeedGustMPH,Humidity,HourlyPrecipIn,Conditions,Clouds,dailyrainin,SoftwareType,DateUTC
2013-02-01 00:01:00,18.0,8.6,30.37,WNW,292,23.0,27.0,66,0.00,,---,0.00,VWS V14.00,2013-02-01 06:01:00,
2013-02-01 00:06:00,18.0,8.6,30.37,WNW,292,15.0,20.0,66,0.00,,---,0.00,VWS V14.00,2013-02-01 06:06:00,
2013-02-01 00:11:00,17.0,7.3,30.37,NW,315,16.0,23.0,65,0.00,,---,0.00,VWS V14.00,2013-02-01 06:11:00,
2013-02-01 00:16:00,17.0,7.6,30.37,WNW,292,17.0,22.0,66,0.00,,---,0.00,VWS V14.00,2013-02-01 06:16:00,
2013-02-01 00:21:00,17.0,7.6,30.37,NW,315,14.0,14.0,66,0.00,,---,0.00,VWS V14.00,2013-02-01 06:21:00,
2013-02-01 00:26:00,17.0,8.3,30.38,WNW,292,18.0,19.0,68,0.00,,---,0.00,VWS V14.00,2013-02-01 06:26:00,
2013-02-01 00:31:00,17.0,7.9,30.38,NW,315,19.0,23.0,67,0.00,,---,0.00,VWS V14.00,2013-02-01 06:31:00,
2013-02-01 00:36:00,17.0,7.6,30.38,NW,315,10.0,14.0,66,0.00,,---,0.00,VWS V14.00,2013-02-01 06:36:00,
2013-02-01 00:41:00,17.0,8.3,30.38,NW,315,16.0,21.0,68,0.00,,---,0.00,VWS V14.00,2013-02-01 06:41:00,
2013-02-01 00:46:00,17.0,8.3,30.39,NW,315,10.0,13.0,68,0.00,,---,0.00,VWS V14.00,2013-02-01 06:46:00,
2013-02-01 00:51:00,17.0,8.3,30.38,NW,315,16.0,18.0,68,0.00,,---,0.00,VWS V14.00,2013-02-01 06:51:00,
2013-02-01 00:56:00,17.0,7.6,30.38,WNW,292,21.0,21.0,66,0.00,,---,0.00,VWS V14.00,2013-02-01 06:56:00,
2013-02-01 01:01:00,17.0,7.3,30.39,NW,315,13.0,13.0,65,0.00,,---,0.00,VWS V14.00,2013-02-01 07:01:00,
2013-02-01 01:06:00,17.0,7.9,30.39,NW,315,6.0,7.0,67,0.00,,---,0.00,VWS V14.00,2013-02-01 07:06:00,
2013-02-01 01:11:00,16.0,7.0,30.39,NW,315,13.0,16.0,67,0.00,,---,0.00,VWS V14.00,2013-02-01 07:11:00,
2013-02-01 01:16:00,16.0,6.3,30.39,NW,315,15.0,17.0,65,0.00,,---,0.00,VWS V14.00,2013-02-01 07:16:00,
2013-02-01 01:21:00,16.0,6.3,30.39,NNW,338,8.0,11.0,65,0.00,,---,0.00,VWS V14.00,2013-02-01 07:21:00,
2013-02-01 01:26:00,16.0,6.3,30.39,NNW,338,11.0,11.0,65,0.00,,---,0.00,VWS V14.00,2013-02-01 07:26:00,
2013-02-01 01:31:00,16.0,6.3,30.40,NNW,338,11.0,13.0,65,0.00,,---,0.00,VWS V14.00,2013-02-01 07:31:00,
2013-02-01 01:36:00,16.0,6.3,30.40,NW,315,11.0,13.0,65,0.00,,---,0.00,VWS V14.00,2013-02-01 07:36:00,
2013-02-01 01:41:00,16.0,6.3,30.40,NW,315,13.0,13.0,65,0.00,,---,0.00,VWS V14.00,2013-02-01 07:41:00,
2013-02-01 01:46:00,15.0,5.7,30.40,NW,315,13.0,14.0,66,0.00,,---,0.00,VWS V14.00,2013-02-01 07:46:00,
2013-02-01 01:51:00,15.0,5.7,30.40,NW,315,14.0,14.0,66,0.00,,---,0.00,VWS V14.00,2013-02-01 07:51:00,
2013-02-01 01:56:00,15.0,6.0,30.40,NW,315,8.0,8.0,67,0.00,,---,0.00,VWS V14.00,2013-02-01 07:56:00,
2013-02-01 02:01:00,15.0,6.4,30.40,NW,315,10.0,10.0,68,0.00,,---,0.00,VWS V14.00,2013-02-01 08:01:00,
2013-02-01 02:06:00,15.0,6.7,30.40,NNW,338,9.0,10.0,69,0.00,,---,0.00,VWS V14.00,2013-02-01 08:06:00,
2013-02-01 02:11:00,15.0,6.7,30.40,NW,315,6.0,11.0,69,0.00,,---,0.00,VWS V14.00,2013-02-01 08:11:00,
2013-02-01 02:16:00,15.0,6.7,30.40,NNW,338,12.0,13.0,69,0.00,,---,0.00,VWS V14.00,2013-02-01 08:16:00,
2013-02-01 02:21:00,15.0,6.4,30.41,NNW,338,14.0,14.0,68,0.00,,---,0.00,VWS V14.00,2013-02-01 08:21:00,
2013-02-01 02:26:00,15.0,6.4,30.42,NNW,338,10.0,10.0,68,0.00,,---,0.00,VWS V14.00,2013-02-01 08:26:00,
2013-02-01 02:31:00,14.0,5.7,30.41,NNW,338,10.0,11.0,69,0.00,,---,0.00,VWS V14.00,2013-02-01 08:31:00,
2013-02-01 02:36:00,14.0,5.7,30.42,NW,315,8.0,9.0,69,0.00,,---,0.00,VWS V14.00,2013-02-01 08:36:00,
2013-02-01 02:41:00,14.0,5.7,30.41,NNW,338,10.0,14.0,69,0.00,,---,0.00,VWS V14.00,2013-02-01 08:41:00,
2013-02-01 02:46:00,14.0,5.7,30.42,NW,315,10.0,10.0,69,0.00,,---,0.00,VWS V14.00,2013-02-01 08:46:00,
2013-02-01 02:51:00,14.0,5.4,30.42,NW,315,11.0,11.0,68,0.00,,---,0.00,VWS V14.00,2013-02-01 08:51:00,
2013-02-01 02:56:00,14.0,5.4,30.42,NW,315,13.0,13.0,68,0.00,,---,0.00,VWS V14.00,2013-02-01 08:56:00,
2013-02-01 03:01:00,14.0,5.1,30.42,NNW,338,21.0,21.0,67,0.00,,---,0.00,VWS V14.00,2013-02-01 09:01:00,
2013-02-01 03:06:00,14.0,4.4,30.42,NW,315,14.0,19.0,65,0.00,,---,0.00,VWS V14.00,2013-02-01 09:06:00,
2013-02-01 03:11:00,14.0,4.4,30.42,NW,315,9.0,10.0,65,0.00,,---,0.00,VWS V14.00,2013-02-01 09:11:00,
2013-02-01 03:16:00,13.0,3.8,30.43,NW,315,11.0,14.0,66,0.00,,---,0.00,VWS V14.00,2013-02-01 09:16:00,
2013-02-01 03:21:00,13.0,3.8,30.43,NNW,338,12.0,13.0,66,0.00,,---,0.00,VWS V14.00,2013-02-01 09:21:00,
2013-02-01 03:26:00,13.0,4.1,30.43,NW,315,11.0,12.0,67,0.00,,---,0.00,VWS V14.00,2013-02-01 09:26:00,
2013-02-01 03:31:00,13.0,3.8,30.43,NW,315,10.0,13.0,66,0.00,,---,0.00,VWS V14.00,2013-02-01 09:31:00,
2013-02-01 03:36:00,13.0,3.8,30.44,NW,315,10.0,11.0,66,0.00,,---,0.00,VWS V14.00,2013-02-01 09:36:00,
2013-02-01 03:41:00,13.0,3.5,30.43,WNW,292,14.0,17.0,65,0.00,,---,0.00,VWS V14.00,2013-02-01 09:41:00,
2013-02-01 03:46:00,12.0,2.5,30.43,NW,315,13.0,19.0,65,0.00,,---,0.00,VWS V14.00,2013-02-01 09:46:00,
2013-02-01 03:51:00,12.0,2.5,30.43,NW,315,11.0,13.0,65,0.00,,---,0.00,VWS V14.00,2013-02-01 09:51:00,
2013-02-01 03:56:00,12.0,2.5,30.44,WNW,292,14.0,14.0,65,0.00,,---,0.00,VWS V14.00,2013-02-01 09:56:00,
2013-02-01 04:01:00,12.0,2.5,30.44,NW,315,12.0,13.0,65,0.00,,---,0.00,VWS V14.00,2013-02-01 10:01:00,
2013-02-01 04:06:00,12.0,2.8,30.44,WNW,292,12.0,12.0,66,0.00,,---,0.00,VWS V14.00,2013-02-01 10:06:00,
2013-02-01 04:11:00,12.0,2.8,30.44,NW,315,10.0,10.0,66,0.00,,---,0.00,VWS V14.00,2013-02-01 10:11:00,
2013-02-01 04:16:00,12.0,3.2,30.45,WNW,292,12.0,15.0,67,0.00,,---,0.00,VWS V14.00,2013-02-01 10:16:00,
2013-02-01 04:21:00,12.0,3.2,30.45,WNW,292,11.0,12.0,67,0.00,,---,0.00,VWS V14.00,2013-02-01 10:21:00,
2013-02-01 04:26:00,12.0,3.2,30.45,WNW,292,11.0,12.0,67,0.00,,---,0.00,VWS V14.00,2013-02-01 10:26:00,
2013-02-01 04:31:00,12.0,3.5,30.46,WNW,292,12.0,13.0,68,0.00,,---,0.00,VWS V14.00,2013-02-01 10:31:00,
2013-02-01 04:36:00,12.0,3.5,30.45,WNW,292,14.0,14.0,68,0.00,,---,0.00,VWS V14.00,2013-02-01 10:36:00,
2013-02-01 04:41:00,12.0,3.2,30.45,WNW,292,11.0,13.0,67,0.00,,---,0.00,VWS V14.00,2013-02-01 10:41:00,
2013-02-01 04:46:00,12.0,3.2,30.46,WNW,292,10.0,11.0,67,0.00,,---,0.00,VWS V14.00,2013-02-01 10:46:00,
2013-02-01 04:51:00,12.0,3.5,30.47,NW,315,8.0,10.0,68,0.00,,---,0.00,VWS V14.00,2013-02-01 10:51:00,
2013-02-01 04:56:00,12.0,3.8,30.47,NW,315,6.0,9.0,69,0.00,,---,0.00,VWS V14.00,2013-02-01 10:56:00,
2013-02-01 05:01:00,12.0,3.5,30.47,WNW,292,11.0,11.0,68,0.00,,---,0.00,VWS V14.00,2013-02-01 11:01:00,
2013-02-01 05:06:00,11.0,2.8,30.47,NW,315,5.0,8.0,69,0.00,,---,0.00,VWS V14.00,2013-02-01 11:06:00,
2013-02-01 05:11:00,11.0,2.8,30.47,WNW,292,9.0,10.0,69,0.00,,---,0.00,VWS V14.00,2013-02-01 11:11:00,
2013-02-01 05:16:00,11.0,2.8,30.48,WNW,292,5.0,7.0,69,0.00,,---,0.00,VWS V14.00,2013-02-01 11:16:00,
2013-02-01 05:21:00,11.0,2.8,30.48,WNW,292,6.0,9.0,69,0.00,,---,0.00,VWS V14.00,2013-02-01 11:21:00,
2013-02-01 05:26:00,11.0,3.2,30.48,WNW,292,6.0,8.0,70,0.00,,---,0.00,VWS V14.00,2013-02-01 11:26:00,
2013-02-01 05:31:00,11.0,3.5,30.49,WNW,292,5.0,6.0,71,0.00,,---,0.00,VWS V14.00,2013-02-01 11:31:00,
2013-02-01 05:36:00,11.0,3.5,30.48,NW,315,5.0,6.0,71,0.00,,---,0.00,VWS V14.00,2013-02-01 11:36:00,
2013-02-01 05:41:00,11.0,3.5,30.48,WNW,292,8.0,8.0,71,0.00,,---,0.00,VWS V14.00,2013-02-01 11:41:00,
2013-02-01 05:46:00,11.0,3.5,30.49,WNW,292,6.0,9.0,71,0.00,,---,0.00,VWS V14.00,2013-02-01 11:46:00,
2013-02-01 05:51:00,11.0,3.5,30.49,NW,315,7.0,10.0,71,0.00,,---,0.00,VWS V14.00,2013-02-01 11:51:00,
2013-02-01 05:56:00,11.0,3.5,30.49,WNW,292,8.0,10.0,71,0.00,,---,0.00,VWS V14.00,2013-02-01 11:56:00,
2013-02-01 06:01:00,11.0,2.5,30.50,NW,315,7.0,9.0,68,0.00,,---,0.00,VWS V14.00,2013-02-01 12:01:00,
2013-02-01 06:06:00,11.0,2.5,30.50,NW,315,8.0,9.0,68,0.00,,---,0.00,VWS V14.00,2013-02-01 12:06:00,
2013-02-01 06:11:00,11.0,2.2,30.50,NNW,338,7.0,9.0,67,0.00,,---,0.00,VWS V14.00,2013-02-01 12:11:00,
2013-02-01 06:16:00,11.0,2.2,30.50,NW,315,5.0,6.0,67,0.00,,---,0.00,VWS V14.00,2013-02-01 12:16:00,
2013-02-01 06:21:00,11.0,2.2,30.50,NW,315,8.0,8.0,67,0.00,,---,0.00,VWS V14.00,2013-02-01 12:21:00,
2013-02-01 06:26:00,11.0,2.2,30.50,NW,315,6.0,6.0,67,0.00,,---,0.00,VWS V14.00,2013-02-01 12:26:00,
2013-02-01 06:31:00,11.0,2.5,30.50,NW,315,6.0,6.0,68,0.00,,---,0.00,VWS V14.00,2013-02-01 12:31:00,
2013-02-01 06:36:00,10.0,1.6,30.50,WNW,292,5.0,8.0,68,0.00,,---,0.00,VWS V14.00,2013-02-01 12:36:00,
2013-02-01 06:41:00,10.0,1.9,30.50,NW,315,6.0,7.0,69,0.00,,---,0.00,VWS V14.00,2013-02-01 12:41:00,
2013-02-01 06:46:00,10.0,1.9,30.51,NW,315,4.0,5.0,69,0.00,,---,0.00,VWS V14.00,2013-02-01 12:46:00,
2013-02-01 06:51:00,10.0,1.9,30.51,NW,315,4.0,5.0,69,0.00,,---,0.00,VWS V14.00,2013-02-01 12:51:00,
2013-02-01 06:56:00,10.0,2.2,30.51,NW,315,4.0,5.0,70,0.00,,---,0.00,VWS V14.00,2013-02-01 12:56:00,
2013-02-01 07:01:00,10.0,2.5,30.52,NW,315,5.0,5.0,71,0.00,,---,0.00,VWS V14.00,2013-02-01 13:01:00,
2013-02-01 07:06:00,10.0,2.5,30.52,NW,315,4.0,4.0,71,0.00,,---,0.00,VWS V14.00,2013-02-01 13:06:00,
2013-02-01 07:11:00,10.0,2.5,30.52,WNW,292,5.0,5.0,71,0.00,,---,0.00,VWS V14.00,2013-02-01 13:11:00,
2013-02-01 07:16:00,10.0,2.5,30.52,WNW,292,4.0,4.0,71,0.00,,---,0.00,VWS V14.00,2013-02-01 13:16:00,
2013-02-01 07:21:00,11.0,3.8,30.52,NW,315,4.0,6.0,72,0.00,,---,0.00,VWS V14.00,2013-02-01 13:21:00,
2013-02-01 07:26:00,11.0,3.8,30.53,NW,315,4.0,5.0,72,0.00,,---,0.00,VWS V14.00,2013-02-01 13:26:00,
2013-02-01 07:31:00,11.0,3.8,30.52,NW,315,4.0,4.0,72,0.00,,---,0.00,VWS V14.00,2013-02-01 13:31:00,
2013-02-01 07:36:00,11.0,3.8,30.53,NW,315,6.0,6.0,72,0.00,,---,0.00,VWS V14.00,2013-02-01 13:36:00,
2013-02-01 07:41:00,11.0,3.8,30.53,WNW,292,6.0,6.0,72,0.00,,---,0.00,VWS V14.00,2013-02-01 13:41:00,
2013-02-01 07:46:00,11.0,3.5,30.53,NW,315,3.0,5.0,71,0.00,,---,0.00,VWS V14.00,2013-02-01 13:46:00,
2013-02-01 07:51:00,12.0,4.4,30.53,WNW,292,5.0,6.0,71,0.00,,---,0.00,VWS V14.00,2013-02-01 13:51:00,
2013-02-01 07:56:00,12.0,4.4,30.53,WNW,292,5.0,6.0,71,0.00,,---,0.00,VWS V14.00,2013-02-01 13:56:00,
2013-02-01 08:01:00,12.0,4.1,30.53,WNW,292,5.0,6.0,70,0.00,,---,0.00,VWS V14.00,2013-02-01 14:01:00,
2013-02-01 08:06:00,12.0,3.8,30.54,NW,315,6.0,6.0,69,0.00,,---,0.00,VWS V14.00,2013-02-01 14:06:00,
2013-02-01 08:11:00,12.0,4.1,30.54,NNW,338,6.0,6.0,70,0.00,,---,0.00,VWS V14.00,2013-02-01 14:11:00,
2013-02-01 08:16:00,12.0,4.1,30.54,WNW,292,6.0,6.0,70,0.00,,---,0.00,VWS V14.00,2013-02-01 14:16:00,
2013-02-01 08:21:00,12.0,4.1,30.54,NNW,338,3.0,6.0,70,0.00,,---,0.00,VWS V14.00,2013-02-01 14:21:00,
2013-02-01 08:26:00,12.0,4.1,30.55,West,270,6.0,10.0,70,0.00,,---,0.00,VWS V14.00,2013-02-01 14:26:00,
2013-02-01 08:31:00,12.0,3.8,30.55,WNW,292,9.0,11.0,69,0.00,,---,0.00,VWS V14.00,2013-02-01 14:31:00,
2013-02-01 08:36:00,13.0,5.1,30.55,WNW,292,10.0,12.0,70,0.00,,---,0.00,VWS V14.00,2013-02-01 14:36:00,
2013-02-01 08:41:00,12.0,3.8,30.55,WNW,292,8.0,8.0,69,0.00,,---,0.00,VWS V14.00,2013-02-01 14:41:00,
2013-02-01 08:46:00,12.0,3.2,30.55,WNW,292,5.0,10.0,67,0.00,,---,0.00,VWS V14.00,2013-02-01 14:46:00,
2013-02-01 08:51:00,12.0,2.8,30.55,WNW,292,10.0,10.0,66,0.00,,---,0.00,VWS V14.00,2013-02-01 14:51:00,
2013-02-01 08:56:00,13.0,4.1,30.56,NW,315,6.0,8.0,67,0.00,,---,0.00,VWS V14.00,2013-02-01 14:56:00,
2013-02-01 09:01:00,13.0,3.8,30.56,West,270,6.0,10.0,66,0.00,,---,0.00,VWS V14.00,2013-02-01 15:01:00,
2013-02-01 09:06:00,13.0,3.5,30.57,WNW,292,7.0,9.0,65,0.00,,---,0.00,VWS V14.00,2013-02-01 15:06:00,
2013-02-01 09:11:00,13.0,3.8,30.57,WNW,292,8.0,11.0,66,0.00,,---,0.00,VWS V14.00,2013-02-01 15:11:00,
2013-02-01 09:16:00,13.0,2.8,30.57,WNW,292,10.0,12.0,63,0.00,,---,0.00,VWS V14.00,2013-02-01 15:16:00,
2013-02-01 09:21:00,14.0,4.1,30.57,WNW,292,5.0,8.0,64,0.00,,---,0.00,VWS V14.00,2013-02-01 15:21:00,
2013-02-01 09:26:00,14.0,4.4,30.57,WNW,292,10.0,12.0,65,0.00,,---,0.00,VWS V14.00,2013-02-01 15:26:00,
2013-02-01 09:31:00,13.0,3.1,30.57,West,270,11.0,11.0,64,0.00,,---,0.00,VWS V14.00,2013-02-01 15:31:00,
2013-02-01 09:36:00,13.0,2.8,30.57,WSW,248,5.0,8.0,63,0.00,,---,0.00,VWS V14.00,2013-02-01 15:36:00,
2013-02-01 09:41:00,14.0,3.4,30.57,WNW,292,11.0,12.0,62,0.00,,---,0.00,VWS V14.00,2013-02-01 15:41:00,
2013-02-01 09:46:00,14.0,3.7,30.57,WSW,248,7.0,10.0,63,0.00,,---,0.00,VWS V14.00,2013-02-01 15:46:00,
2013-02-01 09:51:00,14.0,3.0,30.57,West,270,10.0,11.0,61,0.00,,---,0.00,VWS V14.00,2013-02-01 15:51:00,
2013-02-01 09:56:00,14.0,3.4,30.57,WNW,292,11.0,12.0,62,0.00,,---,0.00,VWS V14.00,2013-02-01 15:56:00,
2013-02-01 10:01:00,14.0,3.4,30.57,NNW,338,5.0,6.0,62,0.00,,---,0.00,VWS V14.00,2013-02-01 16:01:00,
2013-02-01 10:06:00,15.0,4.3,30.57,NW,315,3.0,4.0,62,0.00,,---,0.00,VWS V14.00,2013-02-01 16:06:00,
2013-02-01 10:11:00,15.0,4.3,30.57,NNW,338,6.0,7.0,62,0.00,,---,0.00,VWS V14.00,2013-02-01 16:11:00,
2013-02-01 10:16:00,15.0,4.0,30.57,West,270,8.0,9.0,61,0.00,,---,0.00,VWS V14.00,2013-02-01 16:16:00,
2013-02-01 10:21:00,15.0,4.0,30.56,WNW,292,7.0,8.0,61,0.00,,---,0.00,VWS V14.00,2013-02-01 16:21:00,
2013-02-01 10:26:00,15.0,4.0,30.56,NW,315,5.0,6.0,61,0.00,,---,0.00,VWS V14.00,2013-02-01 16:26:00,
2013-02-01 10:31:00,16.0,5.6,30.56,WNW,292,5.0,7.0,63,0.00,,---,0.00,VWS V14.00,2013-02-01 16:31:00,
2013-02-01 10:36:00,16.0,4.9,30.56,WNW,292,4.0,5.0,61,0.00,,---,0.00,VWS V14.00,2013-02-01 16:36:00,
2013-02-01 10:41:00,16.0,4.9,30.56,WNW,292,7.0,8.0,61,0.00,,---,0.00,VWS V14.00,2013-02-01 16:41:00,
2013-02-01 10:45:00,16.0,4.6,30.56,West,270,9.0,9.0,60,0.00,,---,0.00,VWS V14.00,2013-02-01 16:45:00,
2013-02-01 10:50:00,16.0,4.6,30.56,WNW,292,6.0,7.0,60,0.00,,---,0.00,VWS V14.00,2013-02-01 16:50:00,
2013-02-01 10:55:00,16.0,4.9,30.56,WNW,292,3.0,5.0,61,0.00,,---,0.00,VWS V14.00,2013-02-01 16:55:00,
2013-02-01 11:00:00,16.0,4.6,30.56,NW,315,4.0,6.0,60,0.00,,---,0.00,VWS V14.00,2013-02-01 17:00:00,
2013-02-01 11:05:00,17.0,5.9,30.56,WNW,292,10.0,11.0,61,0.00,,---,0.00,VWS V14.00,2013-02-01 17:05:00,
2013-02-01 11:10:00,17.0,5.2,30.56,WSW,248,5.0,6.0,59,0.00,,---,0.00,VWS V14.00,2013-02-01 17:10:00,
2013-02-01 11:15:00,17.0,5.2,30.56,WSW,248,7.0,9.0,59,0.00,,---,0.00,VWS V14.00,2013-02-01 17:15:00,
2013-02-01 11:20:00,17.0,5.5,30.56,WSW,248,6.0,7.0,60,0.00,,---,0.00,VWS V14.00,2013-02-01 17:20:00,
2013-02-01 11:25:00,18.0,6.1,30.56,WSW,248,5.0,6.0,59,0.00,,---,0.00,VWS V14.00,2013-02-01 17:25:00,
2013-02-01 11:30:00,18.0,6.8,30.56,SSW,202,5.0,10.0,61,0.00,,---,0.00,VWS V14.00,2013-02-01 17:30:00,
2013-02-01 11:35:00,19.0,8.5,30.55,West,270,5.0,8.0,63,0.00,,---,0.00,VWS V14.00,2013-02-01 17:35:00,
2013-02-01 11:40:00,19.0,7.1,30.55,West,270,1.0,2.0,59,0.00,,---,0.00,VWS V14.00,2013-02-01 17:40:00,
2013-02-01 11:45:00,18.0,6.5,30.55,WSW,248,8.0,10.0,60,0.00,,---,0.00,VWS V14.00,2013-02-01 17:45:00,
2013-02-01 11:50:00,18.0,5.7,30.54,West,270,4.0,7.0,58,0.00,,---,0.00,VWS V14.00,2013-02-01 17:50:00,
2013-02-01 11:55:00,18.0,5.7,30.54,WNW,292,1.0,3.0,58,0.00,,---,0.00,VWS V14.00,2013-02-01 17:55:00,
2013-02-01 12:00:00,20.0,8.4,30.53,South,180,2.0,4.0,60,0.00,,---,0.00,VWS V14.00,2013-02-01 18:00:00,
2013-02-01 12:05:00,20.0,8.0,30.53,SSW,202,9.0,9.0,59,0.00,,---,0.00,VWS V14.00,2013-02-01 18:05:00,
2013-02-01 12:10:00,19.0,6.7,30.53,SW,225,4.0,5.0,58,0.00,,---,0.00,VWS V14.00,2013-02-01 18:10:00,
2013-02-01 12:15:00,19.0,6.3,30.53,WSW,248,4.0,5.0,57,0.00,,---,0.00,VWS V14.00,2013-02-01 18:15:00,
2013-02-01 12:20:00,19.0,7.1,30.52,WSW,248,8.0,11.0,59,0.00,,---,0.00,VWS V14.00,2013-02-01 18:20:00,
2013-02-01 12:25:00,20.0,8.0,30.52,SSW,202,6.0,8.0,59,0.00,,---,0.00,VWS V14.00,2013-02-01 18:25:00,
2013-02-01 12:30:00,20.0,8.0,30.52,SSW,202,7.0,10.0,59,0.00,,---,0.00,VWS V14.00,2013-02-01 18:30:00,
2013-02-01 12:35:00,20.0,7.6,30.52,WSW,248,9.0,9.0,58,0.00,,---,0.00,VWS V14.00,2013-02-01 18:35:00,
2013-02-01 12:40:00,20.0,7.6,30.51,WNW,292,1.0,2.0,58,0.00,,---,0.00,VWS V14.00,2013-02-01 18:40:00,
2013-02-01 12:45:00,20.0,7.6,30.51,WNW,292,5.0,6.0,58,0.00,,---,0.00,VWS V14.00,2013-02-01 18:45:00,
2013-02-01 12:50:00,21.0,8.9,30.50,SSE,158,3.0,4.0,59,0.00,,---,0.00,VWS V14.00,2013-02-01 18:50:00,
2013-02-01 12:55:00,21.0,8.2,30.50,SE,135,1.0,3.0,57,0.00,,---,0.00,VWS V14.00,2013-02-01 18:55:00,
2013-02-01 13:00:00,22.0,9.5,30.50,SW,225,7.0,9.0,58,0.00,,---,0.00,VWS V14.00,2013-02-01 19:00:00,
2013-02-01 13:05:00,21.0,7.8,30.49,SW,225,7.0,7.0,56,0.00,,---,0.00,VWS V14.00,2013-02-01 19:05:00,
2013-02-01 13:10:00,21.0,7.8,30.50,SW,225,3.0,6.0,56,0.00,,---,0.00,VWS V14.00,2013-02-01 19:10:00,
2013-02-01 13:15:00,21.0,7.8,30.49,SSW,202,3.0,5.0,56,0.00,,---,0.00,VWS V14.00,2013-02-01 19:15:00,
2013-02-01 13:20:00,22.0,8.3,30.49,SSW,202,6.0,7.0,55,0.00,,---,0.00,VWS V14.00,2013-02-01 19:20:00,
2013-02-01 13:25:00,22.0,9.1,30.49,SW,225,5.0,5.0,57,0.00,,---,0.00,VWS V14.00,2013-02-01 19:25:00,
2013-02-01 13:30:00,22.0,7.9,30.48,WSW,248,5.0,7.0,54,0.00,,---,0.00,VWS V14.00,2013-02-01 19:30:00,
2013-02-01 13:35:00,22.0,8.3,30.48,SW,225,6.0,9.0,55,0.00,,---,0.00,VWS V14.00,2013-02-01 19:35:00,
2013-02-01 13:40:00,21.0,7.4,30.48,WNW,292,7.0,7.0,55,0.00,,---,0.00,VWS V14.00,2013-02-01 19:40:00,
2013-02-01 13:45:00,22.0,8.3,30.48,SSE,158,3.0,3.0,55,0.00,,---,0.00,VWS V14.00,2013-02-01 19:45:00,
2013-02-01 13:50:00,23.0,10.4,30.47,West,270,7.0,8.0,58,0.00,,---,0.00,VWS V14.00,2013-02-01 19:50:00,
2013-02-01 13:55:00,22.0,9.1,30.47,WSW,248,6.0,10.0,57,0.00,,---,0.00,VWS V14.00,2013-02-01 19:55:00,
2013-02-01 14:00:00,22.0,8.7,30.47,West,270,5.0,8.0,56,0.00,,---,0.00,VWS V14.00,2013-02-01 20:00:00,
2013-02-01 14:05:00,23.0,9.2,30.47,South,180,4.0,6.0,55,0.00,,---,0.00,VWS V14.00,2013-02-01 20:05:00,
2013-02-01 14:10:00,23.0,9.7,30.47,WSW,248,8.0,8.0,56,0.00,,---,0.00,VWS V14.00,2013-02-01 20:10:00,
2013-02-01 14:15:00,23.0,9.2,30.47,WSW,248,4.0,6.0,55,0.00,,---,0.00,VWS V14.00,2013-02-01 20:15:00,
2013-02-01 14:20:00,23.0,8.9,30.47,NW,315,4.0,5.0,54,0.00,,---,0.00,VWS V14.00,2013-02-01 20:20:00,
2013-02-01 14:25:00,23.0,8.4,30.47,SW,225,1.0,3.0,53,0.00,,---,0.00,VWS V14.00,2013-02-01 20:25:00,
2013-02-01 14:30:00,24.0,9.4,30.47,WSW,248,8.0,10.0,53,0.00,,---,0.00,VWS V14.00,2013-02-01 20:30:00,
2013-02-01 14:35:00,24.0,9.8,30.47,SSW,202,6.0,7.0,54,0.00,,---,0.00,VWS V14.00,2013-02-01 20:35:00,
2013-02-01 14:40:00,24.0,9.8,30.47,SSW,202,3.0,5.0,54,0.00,,---,0.00,VWS V14.00,2013-02-01 20:40:00,
2013-02-01 14:45:00,24.0,9.8,30.47,SW,225,5.0,6.0,54,0.00,,---,0.00,VWS V14.00,2013-02-01 20:45:00,
2013-02-01 14:50:00,24.0,8.9,30.46,WNW,292,6.0,8.0,52,0.00,,---,0.00,VWS V14.00,2013-02-01 20:50:00,
2013-02-01 14:55:00,24.0,8.9,30.46,South,180,3.0,3.0,52,0.00,,---,0.00,VWS V14.00,2013-02-01 20:55:00,
2013-02-01 15:00:00,24.0,8.9,30.46,South,180,3.0,4.0,52,0.00,,---,0.00,VWS V14.00,2013-02-01 21:00:00,
2013-02-01 15:05:00,25.0,10.7,30.46,SSW,202,8.0,8.0,54,0.00,,---,0.00,VWS V14.00,2013-02-01 21:05:00,
2013-02-01 15:10:00,25.0,10.3,30.46,SW,225,5.0,5.0,53,0.00,,---,0.00,VWS V14.00,2013-02-01 21:10:00,
2013-02-01 15:15:00,24.0,8.9,30.46,West,270,4.0,5.0,52,0.00,,---,0.00,VWS V14.00,2013-02-01 21:15:00,
2013-02-01 15:20:00,24.0,8.9,30.46,SW,225,5.0,5.0,52,0.00,,---,0.00,VWS V14.00,2013-02-01 21:20:00,
2013-02-01 15:25:00,25.0,9.9,30.46,SSW,202,5.0,6.0,52,0.00,,---,0.00,VWS V14.00,2013-02-01 21:25:00,
2013-02-01 15:30:00,24.0,8.9,30.46,WNW,292,4.0,5.0,52,0.00,,---,0.00,VWS V14.00,2013-02-01 21:30:00,
2013-02-01 15:35:00,25.0,10.3,30.46,SW,225,7.0,8.0,53,0.00,,---,0.00,VWS V14.00,2013-02-01 21:35:00,
2013-02-01 15:40:00,25.0,9.9,30.45,SSW,202,5.0,6.0,52,0.00,,---,0.00,VWS V14.00,2013-02-01 21:40:00,
2013-02-01 15:45:00,25.0,9.9,30.45,SSW,202,6.0,6.0,52,0.00,,---,0.00,VWS V14.00,2013-02-01 21:45:00,
2013-02-01 15:50:00,25.0,9.9,30.45,SW,225,6.0,9.0,52,0.00,,---,0.00,VWS V14.00,2013-02-01 21:50:00,
2013-02-01 15:55:00,25.0,10.3,30.45,SSW,202,4.0,5.0,53,0.00,,---,0.00,VWS V14.00,2013-02-01 21:55:00,
2013-02-01 16:00:00,25.0,9.9,30.45,SSW,202,8.0,10.0,52,0.00,,---,0.00,VWS V14.00,2013-02-01 22:00:00,
2013-02-01 16:05:00,25.0,10.3,30.45,SW,225,5.0,6.0,53,0.00,,---,0.00,VWS V14.00,2013-02-01 22:05:00,
2013-02-01 16:10:00,25.0,10.7,30.44,SSW,202,8.0,10.0,54,0.00,,---,0.00,VWS V14.00,2013-02-01 22:10:00,
2013-02-01 16:15:00,25.0,10.3,30.45,SSW,202,7.0,9.0,53,0.00,,---,0.00,VWS V14.00,2013-02-01 22:15:00,
2013-02-01 16:20:00,24.0,10.2,30.45,SW,225,9.0,10.0,55,0.00,,---,0.00,VWS V14.00,2013-02-01 22:20:00,
2013-02-01 16:25:00,25.0,11.1,30.45,SW,225,8.0,9.0,55,0.00,,---,0.00,VWS V14.00,2013-02-01 22:25:00,
2013-02-01 16:30:00,25.0,10.7,30.45,SW,225,7.0,8.0,54,0.00,,---,0.00,VWS V14.00,2013-02-01 22:30:00,
2013-02-01 16:35:00,25.0,11.1,30.44,SW,225,8.0,9.0,55,0.00,,---,0.00,VWS V14.00,2013-02-01 22:35:00,
2013-02-01 16:40:00,24.0,9.4,30.44,SW,225,7.0,7.0,53,0.00,,---,0.00,VWS V14.00,2013-02-01 22:40:00,
2013-02-01 16:45:00,24.0,9.8,30.44,WSW,248,8.0,8.0,54,0.00,,---,0.00,VWS V14.00,2013-02-01 22:45:00,
2013-02-01 16:50:00,24.0,10.2,30.44,SW,225,5.0,9.0,55,0.00,,---,0.00,VWS V14.00,2013-02-01 22:50:00,
2013-02-01 16:55:00,24.0,10.2,30.44,SW,225,7.0,8.0,55,0.00,,---,0.00,VWS V14.00,2013-02-01 22:55:00,
2013-02-01 17:00:00,24.0,10.6,30.44,SW,225,6.0,6.0,56,0.00,,---,0.00,VWS V14.00,2013-02-01 23:00:00,
2013-02-01 17:05:00,24.0,10.6,30.42,SSW,202,6.0,8.0,56,0.00,,---,0.00,VWS V14.00,2013-02-01 23:05:00,
2013-02-01 17:10:00,24.0,10.6,30.42,SSW,202,7.0,8.0,56,0.00,,---,0.00,VWS V14.00,2013-02-01 23:10:00,
2013-02-01 17:15:00,24.0,11.4,30.42,South,180,5.0,5.0,58,0.00,,---,0.00,VWS V14.00,2013-02-01 23:15:00,
2013-02-01 17:20:00,24.0,10.6,30.41,SSW,202,6.0,7.0,56,0.00,,---,0.00,VWS V14.00,2013-02-01 23:20:00,
2013-02-01 17:25:00,24.0,11.0,30.42,SSW,202,6.0,8.0,57,0.00,,---,0.00,VWS V14.00,2013-02-01 23:25:00,
2013-02-01 17:30:00,24.0,11.8,30.42,SSW,202,6.0,6.0,59,0.00,,---,0.00,VWS V14.00,2013-02-01 23:30:00,
2013-02-01 17:35:00,24.0,11.8,30.42,SSW,202,7.0,8.0,59,0.00,,---,0.00,VWS V14.00,2013-02-01 23:35:00,
2013-02-01 17:40:00,24.0,12.1,30.42,South,180,5.0,5.0,60,0.00,,---,0.00,VWS V14.00,2013-02-01 23:40:00,
2013-02-01 17:45:00,23.0,11.2,30.41,SSW,202,3.0,6.0,60,0.00,,---,0.00,VWS V14.00,2013-02-01 23:45:00,
2013-02-01 17:50:00,23.0,11.6,30.41,SSW,202,3.0,4.0,61,0.00,,---,0.00,VWS V14.00,2013-02-01 23:50:00,
2013-02-01 17:55:00,23.0,11.2,30.41,SSW,202,4.0,4.0,60,0.00,,---,0.00,VWS V14.00,2013-02-01 23:55:00,
2013-02-01 18:00:00,23.0,11.2,30.42,SSW,202,5.0,5.0,60,0.00,,---,0.00,VWS V14.00,2013-02-02 00:00:00,
2013-02-01 18:05:00,23.0,11.6,30.42,SW,225,3.0,4.0,61,0.00,,---,0.00,VWS V14.00,2013-02-02 00:05:00,
2013-02-01 18:10:00,23.0,11.6,30.41,SSW,202,4.0,4.0,61,0.00,,---,0.00,VWS V14.00,2013-02-02 00:10:00,
2013-02-01 18:15:00,23.0,11.6,30.41,SSW,202,3.0,3.0,61,0.00,,---,0.00,VWS V14.00,2013-02-02 00:15:00,
2013-02-01 18:20:00,23.0,11.6,30.41,South,180,2.0,2.0,61,0.00,,---,0.00,VWS V14.00,2013-02-02 00:20:00,
2013-02-01 18:25:00,23.0,11.2,30.40,South,180,2.0,3.0,60,0.00,,---,0.00,VWS V14.00,2013-02-02 00:25:00,
2013-02-01 18:30:00,23.0,11.6,30.39,SSE,158,3.0,3.0,61,0.00,,---,0.00,VWS V14.00,2013-02-02 00:30:00,
2013-02-01 18:35:00,23.0,11.2,30.40,SSE,158,2.0,3.0,60,0.00,,---,0.00,VWS V14.00,2013-02-02 00:35:00,
2013-02-01 18:40:00,23.0,11.6,30.39,SSE,158,2.0,3.0,61,0.00,,---,0.00,VWS V14.00,2013-02-02 00:40:00,
2013-02-01 18:45:00,23.0,11.6,30.39,SSE,158,1.0,2.0,61,0.00,,---,0.00,VWS V14.00,2013-02-02 00:45:00,
2013-02-01 18:50:00,23.0,11.2,30.40,SSE,158,1.0,2.0,60,0.00,,---,0.00,VWS V14.00,2013-02-02 00:50:00,
2013-02-01 18:55:00,23.0,11.9,30.40,SW,225,0.0,0.0,62,0.00,,---,0.00,VWS V14.00,2013-02-02 00:55:00,
2013-02-01 19:00:00,23.0,11.2,30.40,WSW,248,1.0,1.0,60,0.00,,---,0.00,VWS V14.00,2013-02-02 01:00:00,
2013-02-01 19:05:00,24.0,12.5,30.40,WSW,248,2.0,3.0,61,0.00,,---,0.00,VWS V14.00,2013-02-02 01:05:00,
2013-02-01 19:10:00,24.0,12.5,30.40,WSW,248,2.0,3.0,61,0.00,,---,0.00,VWS V14.00,2013-02-02 01:10:00,
2013-02-01 19:15:00,24.0,12.9,30.40,WSW,248,0.0,1.0,62,0.00,,---,0.00,VWS V14.00,2013-02-02 01:15:00,
2013-02-01 19:20:00,24.0,12.9,30.41,SW,225,4.0,5.0,62,0.00,,---,0.00,VWS V14.00,2013-02-02 01:20:00,
2013-02-01 19:25:00,24.0,13.6,30.40,SW,225,3.0,4.0,64,0.00,,---,0.00,VWS V14.00,2013-02-02 01:25:00,
2013-02-01 19:30:00,24.0,14.0,30.41,SW,225,2.0,3.0,65,0.00,,---,0.00,VWS V14.00,2013-02-02 01:30:00,
2013-02-01 19:35:00,24.0,13.6,30.41,WSW,248,2.0,3.0,64,0.00,,---,0.00,VWS V14.00,2013-02-02 01:35:00,
2013-02-01 19:40:00,24.0,13.6,30.40,SSW,202,1.0,3.0,64,0.00,,---,0.00,VWS V14.00,2013-02-02 01:40:00,
2013-02-01 19:45:00,24.0,13.6,30.40,SSW,202,4.0,4.0,64,0.00,,---,0.00,VWS V14.00,2013-02-02 01:45:00,
2013-02-01 19:50:00,24.0,14.0,30.40,South,180,6.0,6.0,65,0.00,,---,0.00,VWS V14.00,2013-02-02 01:50:00,
2013-02-01 19:55:00,24.0,13.6,30.39,South,180,4.0,4.0,64,0.00,,---,0.00,VWS V14.00,2013-02-02 01:55:00,
2013-02-01 20:00:00,24.0,13.6,30.39,SSE,158,3.0,4.0,64,0.00,,---,0.00,VWS V14.00,2013-02-02 02:00:00,
2013-02-01 20:05:00,24.0,14.0,30.39,South,180,4.0,6.0,65,0.00,,---,0.00,VWS V14.00,2013-02-02 02:05:00,
2013-02-01 20:10:00,24.0,13.6,30.39,South,180,4.0,5.0,64,0.00,,---,0.00,VWS V14.00,2013-02-02 02:10:00,
2013-02-01 20:15:00,24.0,14.0,30.39,South,180,3.0,4.0,65,0.00,,---,0.00,VWS V14.00,2013-02-02 02:15:00,
2013-02-01 20:20:00,24.0,13.6,30.39,SSE,158,6.0,6.0,64,0.00,,---,0.00,VWS V14.00,2013-02-02 02:20:00,
2013-02-01 20:25:00,24.0,13.6,30.39,SSE,158,5.0,6.0,64,0.00,,---,0.00,VWS V14.00,2013-02-02 02:25:00,
2013-02-01 20:30:00,24.0,13.6,30.39,South,180,5.0,6.0,64,0.00,,---,0.00,VWS V14.00,2013-02-02 02:30:00,
2013-02-01 20:35:00,24.0,13.6,30.39,SSE,158,5.0,7.0,64,0.00,,---,0.00,VWS V14.00,2013-02-02 02:35:00,
2013-02-01 20:40:00,24.0,14.0,30.38,South,180,6.0,6.0,65,0.00,,---,0.00,VWS V14.00,2013-02-02 02:40:00,
2013-02-01 20:45:00,24.0,14.0,30.39,SSE,158,5.0,6.0,65,0.00,,---,0.00,VWS V14.00,2013-02-02 02:45:00,
2013-02-01 20:50:00,24.0,14.3,30.39,South,180,5.0,6.0,66,0.00,,---,0.00,VWS V14.00,2013-02-02 02:50:00,
2013-02-01 20:55:00,24.0,13.6,30.39,South,180,5.0,5.0,64,0.00,,---,0.00,VWS V14.00,2013-02-02 02:55:00,
2013-02-01 21:00:00,24.0,14.0,30.39,SSW,202,5.0,6.0,65,0.00,,---,0.00,VWS V14.00,2013-02-02 03:00:00,
2013-02-01 21:05:00,24.0,13.6,30.39,South,180,4.0,5.0,64,0.00,,---,0.00,VWS V14.00,2013-02-02 03:05:00,
2013-02-01 21:10:00,25.0,14.9,30.38,South,180,5.0,5.0,65,0.00,,---,0.00,VWS V14.00,2013-02-02 03:10:00,
2013-02-01 21:15:00,25.0,15.3,30.38,SSE,158,5.0,5.0,66,0.00,,---,0.00,VWS V14.00,2013-02-02 03:15:00,
2013-02-01 21:20:00,25.0,14.9,30.38,South,180,5.0,6.0,65,0.00,,---,0.00,VWS V14.00,2013-02-02 03:20:00,
2013-02-01 21:25:00,25.0,14.9,30.38,SSE,158,5.0,6.0,65,0.00,,---,0.00,VWS V14.00,2013-02-02 03:25:00,
2013-02-01 21:30:00,25.0,14.9,30.38,South,180,3.0,6.0,65,0.00,,---,0.00,VWS V14.00,2013-02-02 03:30:00,
2013-02-01 21:35:00,25.0,14.9,30.37,SE,135,6.0,6.0,65,0.00,,---,0.00,VWS V14.00,2013-02-02 03:35:00,
2013-02-01 21:40:00,25.0,14.9,30.37,SSE,158,4.0,6.0,65,0.00,,---,0.00,VWS V14.00,2013-02-02 03:40:00,
2013-02-01 21:45:00,25.0,15.3,30.36,SE,135,5.0,5.0,66,0.00,,---,0.00,VWS V14.00,2013-02-02 03:45:00,
2013-02-01 21:50:00,25.0,15.3,30.36,SSE,158,6.0,6.0,66,0.00,,---,0.00,VWS V14.00,2013-02-02 03:50:00,
2013-02-01 21:55:00,25.0,15.3,30.36,SSE,158,4.0,5.0,66,0.00,,---,0.00,VWS V14.00,2013-02-02 03:55:00,
2013-02-01 22:00:00,25.0,15.3,30.36,South,180,6.0,7.0,66,0.00,,---,0.00,VWS V14.00,2013-02-02 04:00:00,
2013-02-01 22:05:00,25.0,15.6,30.36,SSE,158,6.0,7.0,67,0.00,,---,0.00,VWS V14.00,2013-02-02 04:05:00,
2013-02-01 22:10:00,25.0,15.3,30.36,SSE,158,8.0,9.0,66,0.00,,---,0.00,VWS V14.00,2013-02-02 04:10:00,
2013-02-01 22:15:00,25.0,15.3,30.36,SSE,158,6.0,8.0,66,0.00,,---,0.00,VWS V14.00,2013-02-02 04:15:00,
2013-02-01 22:20:00,25.0,15.3,30.36,SSE,158,6.0,8.0,66,0.00,,---,0.00,VWS V14.00,2013-02-02 04:20:00,
2013-02-01 22:25:00,25.0,15.3,30.36,SSE,158,6.0,8.0,66,0.00,,---,0.00,VWS V14.00,2013-02-02 04:25:00,
2013-02-01 22:30:00,25.0,15.3,30.37,South,180,5.0,8.0,66,0.00,,---,0.00,VWS V14.00,2013-02-02 04:30:00,
2013-02-01 22:35:00,25.0,15.3,30.36,SSE,158,6.0,7.0,66,0.00,,---,0.00,VWS V14.00,2013-02-02 04:35:00,
2013-02-01 22:40:00,25.0,15.3,30.36,SSE,158,6.0,8.0,66,0.00,,---,0.00,VWS V14.00,2013-02-02 04:40:00,
2013-02-01 22:45:00,25.0,15.6,30.36,South,180,8.0,8.0,67,0.00,,---,0.00,VWS V14.00,2013-02-02 04:45:00,
2013-02-01 22:50:00,25.0,15.6,30.36,South,180,6.0,8.0,67,0.00,,---,0.00,VWS V14.00,2013-02-02 04:50:00,
2013-02-01 22:55:00,25.0,15.6,30.36,SSW,202,4.0,5.0,67,0.00,,---,0.00,VWS V14.00,2013-02-02 04:55:00,
2013-02-01 23:00:00,25.0,15.6,30.36,SSE,158,5.0,5.0,67,0.00,,---,0.00,VWS V14.00,2013-02-02 05:00:00,
2013-02-01 23:05:00,25.0,15.6,30.36,South,180,5.0,6.0,67,0.00,,---,0.00,VWS V14.00,2013-02-02 05:05:00,
2013-02-01 23:10:00,25.0,15.9,30.36,South,180,6.0,6.0,68,0.00,,---,0.00,VWS V14.00,2013-02-02 05:10:00,
2013-02-01 23:15:00,25.0,15.9,30.35,SSE,158,5.0,5.0,68,0.00,,---,0.00,VWS V14.00,2013-02-02 05:15:00,
2013-02-01 23:20:00,25.0,15.9,30.36,South,180,5.0,6.0,68,0.00,,---,0.00,VWS V14.00,2013-02-02 05:20:00,
2013-02-01 23:25:00,25.0,15.9,30.35,South,180,4.0,5.0,68,0.00,,---,0.00,VWS V14.00,2013-02-02 05:25:00,
2013-02-01 23:30:00,25.0,16.3,30.35,SSE,158,4.0,5.0,69,0.00,,---,0.00,VWS V14.00,2013-02-02 05:30:00,
2013-02-01 23:35:00,25.0,16.3,30.35,SSE,158,5.0,5.0,69,0.00,,---,0.00,VWS V14.00,2013-02-02 05:35:00,
2013-02-01 23:40:00,25.0,16.6,30.34,SSE,158,5.0,6.0,70,0.00,,---,0.00,VWS V14.00,2013-02-02 05:40:00,
2013-02-01 23:45:00,25.0,16.6,30.34,SSE,158,5.0,5.0,70,0.00,,---,0.00,VWS V14.00,2013-02-02 05:45:00,
2013-02-01 23:50:00,25.0,16.6,30.34,SSE,158,4.0,5.0,70,0.00,,---,0.00,VWS V14.00,2013-02-02 05:50:00,
2013-02-01 23:55:00,25.0,16.6,30.34,SSE,158,5.0,6.0,70,0.00,,---,0.00,VWS V14.00,2013-02-02 05:55:00,